Terminal Aerodrome Forecast
Issued by NWS Rapid City, SD

Home | Current Version | Previous Version | Graphics & Text | Print | Product List | Glossary On
Versions: 1 2 3 4 5 6 7 8 9 10 11 12 13 14 15 16 17 18 19 20 21
856
FTUS43 KUNR 191120
TAFRAP
TAF
KRAP 191120Z 1912/2012 18014KT P6SM SCT200
     FM191700 21018KT P6SM SCT200
     FM191900 35018KT P6SM SCT120
     FM200100 02011KT P6SM VCTS SCT100CB
     FM200600 VRB06KT P6SM SCT100=

USA.gov is the U.S. government's official web portal to all federal, state and local government web resources and services.